sensor_id;sensor_type;location;lat;lon;timestamp;pressure;altitude;pressure_sealevel;temperature;humidity
23363;BME280;11853;48.080;11.960;2023-04-10T00:02:12;95465.81;;;5.31;100.00
23363;BME280;11853;48.080;11.960;2023-04-10T00:04:37;95480.03;;;5.28;99.50
23363;BME280;11853;48.080;11.960;2023-04-10T00:07:03;95471.50;;;5.25;98.90
23363;BME280;11853;48.080;11.960;2023-04-10T00:09:29;95470.88;;;5.21;99.45
23363;BME280;11853;48.080;11.960;2023-04-10T00:11:55;95464.03;;;5.18;98.75
23363;BME280;11853;48.080;11.960;2023-04-10T00:14:21;95471.19;;;5.16;98.78
23363;BME280;11853;48.080;11.960;2023-04-10T00:16:48;95471.59;;;5.10;98.48
23363;BME280;11853;48.080;11.960;2023-04-10T00:19:13;95475.16;;;5.09;99.72
23363;BME280;11853;48.080;11.960;2023-04-10T00:21:39;95468.03;;;5.11;100.00
23363;BME280;11853;48.080;11.960;2023-04-10T00:24:05;95462.56;;;5.14;99.49
23363;BME280;11853;48.080;11.960;2023-04-10T00:26:31;95464.97;;;5.17;99.50
23363;BME280;11853;48.080;11.960;2023-04-10T00:28:57;95463.38;;;5.15;98.33
23363;BME280;11853;48.080;11.960;2023-04-10T00:31:22;95465.50;;;5.10;98.03
23363;BME280;11853;48.080;11.960;2023-04-10T00:33:48;95459.59;;;5.06;99.28
23363;BME280;11853;48.080;11.960;2023-04-10T00:36:13;95462.56;;;5.02;99.81
23363;BME280;11853;48.080;11.960;2023-04-10T00:38:39;95456.56;;;5.00;99.98
23363;BME280;11853;48.080;11.960;2023-04-10T00:41:04;95455.19;;;4.94;100.00
23363;BME280;11853;48.080;11.960;2023-04-10T00:43:30;95457.94;;;4.92;100.00
23363;BME280;11853;48.080;11.960;2023-04-10T00:45:56;95453.06;;;4.86;100.00
23363;BME280;11853;48.080;11.960;2023-04-10T00:48:21;95468.00;;;4.86;100.00
23363;BME280;11853;48.080;11.960;2023-04-10T00:50:47;95452.88;;;4.89;100.00
23363;BME280;11853;48.080;11.960;2023-04-10T00:53:12;95462.53;;;4.89;100.00
23363;BME280;11853;48.080;11.960;2023-04-10T00:55:38;95461.59;;;4.90;100.00
23363;BME280;11853;48.080;11.960;2023-04-10T00:58:04;95456.00;;;4.82;100.00
23363;BME280;11853;48.080;11.960;2023-04-10T01:00:31;95448.88;;;4.84;99.69
23363;BME280;11853;48.080;11.960;2023-04-10T01:02:56;95450.22;;;4.77;99.62
23363;BME280;11853;48.080;11.960;2023-04-10T01:05:27;95453.06;;;4.73;99.67
23363;BME280;11853;48.080;11.960;2023-04-10T01:10:41;95443.25;;;4.63;100.00
23363;BME280;11853;48.080;11.960;2023-04-10T01:13:26;95440.72;;;4.61;100.00
23363;BME280;11853;48.080;11.960;2023-04-10T01:16:30;95441.66;;;4.60;100.00
23363;BME280;11853;48.080;11.960;2023-04-10T01:19:06;95438.91;;;4.49;100.00
23363;BME280;11853;48.080;11.960;2023-04-10T01:21:35;95439.34;;;4.56;100.00
23363;BME280;11853;48.080;11.960;2023-04-10T01:27:03;95442.53;;;4.61;100.00
23363;BME280;11853;48.080;11.960;2023-04-10T01:29:35;95442.53;;;4.61;100.00
23363;BME280;11853;48.080;11.960;2023-04-10T01:32:16;95445.03;;;4.62;100.00
23363;BME280;11853;48.080;11.960;2023-04-10T01:34:44;95440.81;;;4.60;99.81
23363;BME280;11853;48.080;11.960;2023-04-10T01:37:14;95444.09;;;4.63;99.80
23363;BME280;11853;48.080;11.960;2023-04-10T01:39:41;95439.91;;;4.61;98.58
23363;BME280;11853;48.080;11.960;2023-04-10T01:42:09;95445.25;;;4.59;97.56
23363;BME280;11853;48.080;11.960;2023-04-10T01:44:37;95440.59;;;4.50;98.79
23363;BME280;11853;48.080;11.960;2023-04-10T01:47:06;95440.81;;;4.47;99.47
23363;BME280;11853;48.080;11.960;2023-04-10T01:49:32;95442.06;;;4.41;99.92
23363;BME280;11853;48.080;11.960;2023-04-10T01:51:59;95441.09;;;4.42;99.29
23363;BME280;11853;48.080;11.960;2023-04-10T01:54:26;95436.13;;;4.38;100.00
23363;BME280;11853;48.080;11.960;2023-04-10T01:56:53;95438.75;;;4.38;99.56
23363;BME280;11853;48.080;11.960;2023-04-10T01:59:19;95428.25;;;4.38;99.53
23363;BME280;11853;48.080;11.960;2023-04-10T02:01:45;95433.00;;;4.33;99.51
23363;BME280;11853;48.080;11.960;2023-04-10T02:04:11;95427.94;;;4.29;100.00
23363;BME280;11853;48.080;11.960;2023-04-10T02:11:55;95432.22;;;4.18;100.00
23363;BME280;11853;48.080;11.960;2023-04-10T02:14:26;95431.81;;;4.24;100.00
23363;BME280;11853;48.080;11.960;2023-04-10T02:16:54;95424.13;;;4.21;100.00
23363;BME280;11853;48.080;11.960;2023-04-10T02:19:22;95421.19;;;4.25;100.00
23363;BME280;11853;48.080;11.960;2023-04-10T02:21:50;95421.50;;;4.21;100.00
23363;BME280;11853;48.080;11.960;2023-04-10T02:24:17;95426.19;;;4.16;100.00
23363;BME280;11853;48.080;11.960;2023-04-10T02:26:47;95428.19;;;4.12;99.91
23363;BME280;11853;48.080;11.960;2023-04-10T02:29:13;95422.59;;;4.04;100.00
23363;BME280;11853;48.080;11.960;2023-04-10T02:31:41;95418.94;;;4.06;100.00
23363;BME280;11853;48.080;11.960;2023-04-10T02:34:07;95423.22;;;4.07;100.00
23363;BME280;11853;48.080;11.960;2023-04-10T02:36:37;95417.16;;;4.07;100.00
23363;BME280;11853;48.080;11.960;2023-04-10T02:39:03;95416.94;;;4.10;100.00
23363;BME280;11853;48.080;11.960;2023-04-10T02:41:29;95426.28;;;4.14;100.00
23363;BME280;11853;48.080;11.960;2023-04-10T02:43:55;95418.88;;;4.21;100.00
23363;BME280;11853;48.080;11.960;2023-04-10T02:46:20;95423.81;;;4.25;99.65
23363;BME280;11853;48.080;11.960;2023-04-10T02:48:46;95422.88;;;4.26;100.00
23363;BME280;11853;48.080;11.960;2023-04-10T02:51:12;95425.19;;;4.31;99.66
23363;BME280;11853;48.080;11.960;2023-04-10T02:53:38;95421.09;;;4.27;97.82
23363;BME280;11853;48.080;11.960;2023-04-10T02:56:04;95420.34;;;4.25;98.21
23363;BME280;11853;48.080;11.960;2023-04-10T02:58:31;95423.94;;;4.24;96.59
23363;BME280;11853;48.080;11.960;2023-04-10T03:00:57;95426.28;;;4.14;96.95
23363;BME280;11853;48.080;11.960;2023-04-10T03:03:22;95429.13;;;4.11;96.34
23363;BME280;11853;48.080;11.960;2023-04-10T03:05:48;95428.47;;;4.07;96.39
23363;BME280;11853;48.080;11.960;2023-04-10T03:08:14;95421.63;;;4.05;96.13
23363;BME280;11853;48.080;11.960;2023-04-10T03:10:43;95428.41;;;3.95;97.63
23363;BME280;11853;48.080;11.960;2023-04-10T03:13:09;95421.69;;;3.91;96.73
23363;BME280;11853;48.080;11.960;2023-04-10T03:15:35;95416.84;;;3.84;96.90
23363;BME280;11853;48.080;11.960;2023-04-10T03:18:01;95409.91;;;3.83;96.93
23363;BME280;11853;48.080;11.960;2023-04-10T03:20:26;95417.88;;;3.82;99.06
23363;BME280;11853;48.080;11.960;2023-04-10T03:22:52;95415.16;;;3.83;99.09
23363;BME280;11853;48.080;11.960;2023-04-10T03:25:17;95417.94;;;3.80;99.22
23363;BME280;11853;48.080;11.960;2023-04-10T03:27:43;95426.69;;;3.81;98.63
23363;BME280;11853;48.080;11.960;2023-04-10T03:30:09;95423.03;;;3.83;98.35
23363;BME280;11853;48.080;11.960;2023-04-10T03:32:35;95415.78;;;3.87;98.32
23363;BME280;11853;48.080;11.960;2023-04-10T03:35:00;95407.16;;;3.85;97.97
23363;BME280;11853;48.080;11.960;2023-04-10T03:37:26;95413.06;;;3.89;97.12
23363;BME280;11853;48.080;11.960;2023-04-10T03:39:52;95414.75;;;3.90;96.47
23363;BME280;11853;48.080;11.960;2023-04-10T03:42:17;95419.34;;;3.86;97.34
23363;BME280;11853;48.080;11.960;2023-04-10T03:44:43;95417.47;;;3.88;97.48
23363;BME280;11853;48.080;11.960;2023-04-10T03:50:15;95412.53;;;3.83;97.66
23363;BME280;11853;48.080;11.960;2023-04-10T03:52:40;95418.41;;;3.87;97.27
23363;BME280;11853;48.080;11.960;2023-04-10T03:55:06;95419.16;;;3.89;97.08
23363;BME280;11853;48.080;11.960;2023-04-10T03:57:32;95423.03;;;3.83;96.87
23363;BME280;11853;48.080;11.960;2023-04-10T03:59:58;95420.97;;;3.74;96.32
23363;BME280;11853;48.080;11.960;2023-04-10T04:02:23;95419.28;;;3.73;96.31
23363;BME280;11853;48.080;11.960;2023-04-10T04:04:49;95424.34;;;3.76;96.70
23363;BME280;11853;48.080;11.960;2023-04-10T04:07:15;95422.88;;;3.72;96.29
23363;BME280;11853;48.080;11.960;2023-04-10T04:09:41;95419.75;;;3.66;96.88
23363;BME280;11853;48.080;11.960;2023-04-10T04:12:07;95413.69;;;3.65;98.04
23363;BME280;11853;48.080;11.960;2023-04-10T04:14:33;95416.41;;;3.64;97.55
23363;BME280;11853;48.080;11.960;2023-04-10T04:16:58;95408.81;;;3.59;96.92
23363;BME280;11853;48.080;11.960;2023-04-10T04:19:24;95418.56;;;3.57;96.58
23363;BME280;11853;48.080;11.960;2023-04-10T04:21:50;95422.91;;;3.58;96.55
23363;BME280;11853;48.080;11.960;2023-04-10T04:24:15;95416.88;;;3.56;97.55
23363;BME280;11853;48.080;11.960;2023-04-10T04:26:44;95427.00;;;3.62;97.74
23363;BME280;11853;48.080;11.960;2023-04-10T04:29:09;95427.84;;;3.63;96.39
23363;BME280;11853;48.080;11.960;2023-04-10T04:31:35;95427.75;;;3.64;96.48
23363;BME280;11853;48.080;11.960;2023-04-10T04:34:01;95429.34;;;3.67;97.46
23363;BME280;11853;48.080;11.960;2023-04-10T04:36:27;95427.00;;;3.62;97.48
23363;BME280;11853;48.080;11.960;2023-04-10T04:38:53;95427.00;;;3.62;98.17
23363;BME280;11853;48.080;11.960;2023-04-10T04:41:19;95423.41;;;3.63;98.24
23363;BME280;11853;48.080;11.960;2023-04-10T04:43:45;95424.81;;;3.69;98.80
23363;BME280;11853;48.080;11.960;2023-04-10T04:46:12;95425.84;;;3.66;99.57
23363;BME280;11853;48.080;11.960;2023-04-10T04:48:38;95418.84;;;3.67;100.00
23363;BME280;11853;48.080;11.960;2023-04-10T04:51:05;95416.69;;;3.59;100.00
23363;BME280;11853;48.080;11.960;2023-04-10T04:53:31;95418.56;;;3.57;100.00
23363;BME280;11853;48.080;11.960;2023-04-10T04:55:57;95422.94;;;3.71;100.00
23363;BME280;11853;48.080;11.960;2023-04-10T04:58:23;95422.13;;;3.97;100.00
23363;BME280;11853;48.080;11.960;2023-04-10T05:00:50;95423.59;;;4.28;100.00
23363;BME280;11853;48.080;11.960;2023-04-10T05:03:16;95413.72;;;4.59;100.00
23363;BME280;11853;48.080;11.960;2023-04-10T05:05:42;95423.88;;;5.04;100.00
23363;BME280;11853;48.080;11.960;2023-04-10T05:08:08;95420.25;;;5.43;97.86
23363;BME280;11853;48.080;11.960;2023-04-10T05:10:35;95412.59;;;5.77;96.13
23363;BME280;11853;48.080;11.960;2023-04-10T05:13:00;95418.44;;;6.06;91.86
23363;BME280;11853;48.080;11.960;2023-04-10T05:15:26;95423.53;;;6.20;92.13
23363;BME280;11853;48.080;11.960;2023-04-10T05:17:51;95419.34;;;6.42;90.94
23363;BME280;11853;48.080;11.960;2023-04-10T05:20:18;95433.28;;;6.79;86.48
23363;BME280;11853;48.080;11.960;2023-04-10T05:22:44;95432.22;;;6.93;85.77
23363;BME280;11853;48.080;11.960;2023-04-10T05:25:10;95433.34;;;7.13;83.12
23363;BME280;11853;48.080;11.960;2023-04-10T05:27:35;95435.28;;;7.22;83.93
23363;BME280;11853;48.080;11.960;2023-04-10T05:30:02;95431.81;;;7.21;82.70
23363;BME280;11853;48.080;11.960;2023-04-10T05:32:28;95438.66;;;7.47;81.93
23363;BME280;11853;48.080;11.960;2023-04-10T05:34:54;95441.31;;;7.58;84.89
23363;BME280;11853;48.080;11.960;2023-04-10T05:37:19;95440.56;;;7.89;81.62
23363;BME280;11853;48.080;11.960;2023-04-10T05:39:45;95436.00;;;8.03;81.04
23363;BME280;11853;48.080;11.960;2023-04-10T05:42:11;95434.03;;;8.27;80.09
23363;BME280;11853;48.080;11.960;2023-04-10T05:44:38;95432.94;;;8.73;80.14
23363;BME280;11853;48.080;11.960;2023-04-10T05:47:03;95444.53;;;9.14;78.03
23363;BME280;11853;48.080;11.960;2023-04-10T05:49:29;95440.06;;;9.36;77.11
23363;BME280;11853;48.080;11.960;2023-04-10T05:51:55;95436.13;;;9.91;72.91
23363;BME280;11853;48.080;11.960;2023-04-10T05:54:21;95437.69;;;9.94;74.01
23363;BME280;11853;48.080;11.960;2023-04-10T05:56:46;95441.97;;;10.26;73.11
23363;BME280;11853;48.080;11.960;2023-04-10T05:59:12;95444.28;;;10.59;73.02
23363;BME280;11853;48.080;11.960;2023-04-10T06:01:39;95438.03;;;10.70;69.72
23363;BME280;11853;48.080;11.960;2023-04-10T06:04:05;95446.66;;;11.01;69.94
23363;BME280;11853;48.080;11.960;2023-04-10T06:06:32;95445.28;;;11.17;70.59
23363;BME280;11853;48.080;11.960;2023-04-10T06:08:58;95443.81;;;11.52;68.76
23363;BME280;11853;48.080;11.960;2023-04-10T06:11:23;95446.25;;;11.82;68.54
23363;BME280;11853;48.080;11.960;2023-04-10T06:13:49;95450.00;;;11.89;66.56
23363;BME280;11853;48.080;11.960;2023-04-10T06:16:15;95456.75;;;12.21;65.99
23363;BME280;11853;48.080;11.960;2023-04-10T06:18:41;95451.13;;;12.24;63.59
23363;BME280;11853;48.080;11.960;2023-04-10T06:21:07;95449.28;;;12.52;65.23
23363;BME280;11853;48.080;11.960;2023-04-10T06:23:33;95450.25;;;12.33;63.88
23363;BME280;11853;48.080;11.960;2023-04-10T06:25:59;95446.09;;;12.49;64.72
23363;BME280;11853;48.080;11.960;2023-04-10T06:28:25;95464.09;;;12.37;64.42
23363;BME280;11853;48.080;11.960;2023-04-10T06:30:51;95457.44;;;12.23;62.10
23363;BME280;11853;48.080;11.960;2023-04-10T06:33:17;95473.41;;;11.76;63.82
23363;BME280;11853;48.080;11.960;2023-04-10T06:35:42;95467.19;;;11.38;66.42
23363;BME280;11853;48.080;11.960;2023-04-10T06:38:08;95457.44;;;11.19;65.88
23363;BME280;11853;48.080;11.960;2023-04-10T06:40:34;95455.97;;;11.44;63.37
23363;BME280;11853;48.080;11.960;2023-04-10T06:43:00;95456.41;;;11.30;63.24
23363;BME280;11853;48.080;11.960;2023-04-10T06:45:25;95467.22;;;10.99;66.82
23363;BME280;11853;48.080;11.960;2023-04-10T06:47:51;95455.63;;;10.81;66.54
23363;BME280;11853;48.080;11.960;2023-04-10T06:50:17;95458.97;;;11.02;64.63
23363;BME280;11853;48.080;11.960;2023-04-10T06:52:44;95457.44;;;11.10;64.12
23363;BME280;11853;48.080;11.960;2023-04-10T06:55:09;95457.28;;;11.01;64.71
23363;BME280;11853;48.080;11.960;2023-04-10T06:57:40;95455.78;;;10.79;65.21
23363;BME280;11853;48.080;11.960;2023-04-10T07:00:06;95456.84;;;10.57;67.01
23363;BME280;11853;48.080;11.960;2023-04-10T07:02:32;95454.94;;;10.79;66.56
23363;BME280;11853;48.080;11.960;2023-04-10T07:04:58;95453.53;;;10.75;66.14
23363;BME280;11853;48.080;11.960;2023-04-10T07:07:24;95444.28;;;10.98;68.04
23363;BME280;11853;48.080;11.960;2023-04-10T07:09:50;95441.38;;;11.11;67.73
23363;BME280;11853;48.080;11.960;2023-04-10T07:12:16;95438.13;;;11.27;68.96
23363;BME280;11853;48.080;11.960;2023-04-10T07:14:42;95440.53;;;11.77;68.93
23363;BME280;11853;48.080;11.960;2023-04-10T07:17:08;95438.28;;;11.82;67.20
23363;BME280;11853;48.080;11.960;2023-04-10T07:19:33;95430.22;;;12.02;68.74
23363;BME280;11853;48.080;11.960;2023-04-10T07:22:00;95427.34;;;12.23;68.49
23363;BME280;11853;48.080;11.960;2023-04-10T07:24:26;95428.72;;;12.45;66.91
23363;BME280;11853;48.080;11.960;2023-04-10T07:26:52;95430.72;;;12.43;66.20
23363;BME280;11853;48.080;11.960;2023-04-10T07:29:18;95440.28;;;12.35;67.89
23363;BME280;11853;48.080;11.960;2023-04-10T07:31:44;95431.91;;;12.03;66.49
23363;BME280;11853;48.080;11.960;2023-04-10T07:34:11;95422.31;;;11.82;68.58
23363;BME280;11853;48.080;11.960;2023-04-10T07:36:37;95428.91;;;11.78;68.63
23363;BME280;11853;48.080;11.960;2023-04-10T07:39:02;95434.00;;;11.62;67.79
23363;BME280;11853;48.080;11.960;2023-04-10T07:41:28;95426.91;;;11.43;70.65
23363;BME280;11853;48.080;11.960;2023-04-10T07:43:54;95430.78;;;11.68;68.88
23363;BME280;11853;48.080;11.960;2023-04-10T07:46:20;95428.75;;;11.80;72.13
23363;BME280;11853;48.080;11.960;2023-04-10T07:48:45;95428.44;;;11.92;71.65
23363;BME280;11853;48.080;11.960;2023-04-10T07:51:14;95425.94;;;12.18;71.42
23363;BME280;11853;48.080;11.960;2023-04-10T07:53:40;95424.69;;;12.23;67.39
23363;BME280;11853;48.080;11.960;2023-04-10T07:56:06;95415.41;;;12.27;65.37
23363;BME280;11853;48.080;11.960;2023-04-10T07:58:32;95429.84;;;11.97;66.63
23363;BME280;11853;48.080;11.960;2023-04-10T08:00:58;95424.53;;;11.97;67.56
23363;BME280;11853;48.080;11.960;2023-04-10T08:03:25;95427.56;;;12.02;65.71
23363;BME280;11853;48.080;11.960;2023-04-10T08:05:51;95424.81;;;11.93;67.12
23363;BME280;11853;48.080;11.960;2023-04-10T08:08:16;95433.50;;;12.23;66.33
23363;BME280;11853;48.080;11.960;2023-04-10T08:10:42;95428.88;;;12.25;64.94
23363;BME280;11853;48.080;11.960;2023-04-10T08:13:07;95428.97;;;12.06;64.50
23363;BME280;11853;48.080;11.960;2023-04-10T08:15:33;95431.31;;;11.71;66.80
23363;BME280;11853;48.080;11.960;2023-04-10T08:17:59;95433.84;;;11.63;66.65
23363;BME280;11853;48.080;11.960;2023-04-10T08:20:26;95436.28;;;11.84;67.17
23363;BME280;11853;48.080;11.960;2023-04-10T08:22:53;95439.91;;;12.03;65.45
23363;BME280;11853;48.080;11.960;2023-04-10T08:25:18;95437.94;;;12.05;66.17
23363;BME280;11853;48.080;11.960;2023-04-10T08:27:44;95443.63;;;12.10;66.67
23363;BME280;11853;48.080;11.960;2023-04-10T08:30:10;95435.72;;;12.28;68.61
23363;BME280;11853;48.080;11.960;2023-04-10T08:32:37;95440.34;;;12.53;65.85
23363;BME280;11853;48.080;11.960;2023-04-10T08:35:03;95441.53;;;12.59;67.45
23363;BME280;11853;48.080;11.960;2023-04-10T08:37:29;95449.25;;;12.62;66.02
23363;BME280;11853;48.080;11.960;2023-04-10T08:39:54;95440.94;;;12.65;65.80
23363;BME280;11853;48.080;11.960;2023-04-10T08:42:20;95440.66;;;12.86;64.10
23363;BME280;11853;48.080;11.960;2023-04-10T08:44:49;95434.72;;;12.92;65.78
23363;BME280;11853;48.080;11.960;2023-04-10T08:47:19;95426.19;;;12.89;64.44
23363;BME280;11853;48.080;11.960;2023-04-10T08:49:53;95433.19;;;12.90;64.64
23363;BME280;11853;48.080;11.960;2023-04-10T08:52:22;95430.03;;;12.58;64.70
23363;BME280;11853;48.080;11.960;2023-04-10T08:54:56;95419.63;;;12.47;64.87
23363;BME280;11853;48.080;11.960;2023-04-10T08:57:24;95415.16;;;12.48;64.62
23363;BME280;11853;48.080;11.960;2023-04-10T08:59:51;95420.63;;;12.64;65.09
23363;BME280;11853;48.080;11.960;2023-04-10T09:02:18;95414.38;;;12.73;65.13
23363;BME280;11853;48.080;11.960;2023-04-10T09:04:47;95416.38;;;12.71;65.58
23363;BME280;11853;48.080;11.960;2023-04-10T09:07:14;95409.75;;;12.75;64.14
23363;BME280;11853;48.080;11.960;2023-04-10T09:09:40;95414.38;;;12.73;65.15
23363;BME280;11853;48.080;11.960;2023-04-10T09:12:06;95412.63;;;12.64;64.93
23363;BME280;11853;48.080;11.960;2023-04-10T09:14:33;95407.47;;;12.80;64.78
23363;BME280;11853;48.080;11.960;2023-04-10T09:19:41;95408.38;;;13.07;63.84
23363;BME280;11853;48.080;11.960;2023-04-10T09:22:08;95405.16;;;13.21;61.52
23363;BME280;11853;48.080;11.960;2023-04-10T09:24:41;95407.38;;;13.08;61.45
23363;BME280;11853;48.080;11.960;2023-04-10T09:27:07;95406.81;;;12.96;60.93
23363;BME280;11853;48.080;11.960;2023-04-10T09:29:44;95393.63;;;12.95;61.14
23363;BME280;11853;48.080;11.960;2023-04-10T09:32:13;95396.06;;;12.70;61.83
23363;BME280;11853;48.080;11.960;2023-04-10T09:34:54;95401.69;;;12.85;61.54
23363;BME280;11853;48.080;11.960;2023-04-10T09:37:30;95391.13;;;12.75;61.47
23363;BME280;11853;48.080;11.960;2023-04-10T09:39:56;95394.38;;;12.87;61.46
23363;BME280;11853;48.080;11.960;2023-04-10T09:42:33;95387.22;;;12.88;61.18
23363;BME280;11853;48.080;11.960;2023-04-10T09:45:00;95386.97;;;12.99;61.27
23363;BME280;11853;48.080;11.960;2023-04-10T09:47:26;95387.06;;;13.07;59.48
23363;BME280;11853;48.080;11.960;2023-04-10T09:49:53;95387.94;;;13.16;59.85
23363;BME280;11853;48.080;11.960;2023-04-10T09:52:35;95377.03;;;13.01;58.58
23363;BME280;11853;48.080;11.960;2023-04-10T09:55:05;95383.50;;;13.24;59.26
23363;BME280;11853;48.080;11.960;2023-04-10T09:57:35;95369.69;;;13.21;58.43
23363;BME280;11853;48.080;11.960;2023-04-10T10:00:04;95372.94;;;13.33;57.45
23363;BME280;11853;48.080;11.960;2023-04-10T10:02:35;95368.31;;;13.35;58.45
23363;BME280;11853;48.080;11.960;2023-04-10T10:05:02;95349.72;;;13.43;57.96
23363;BME280;11853;48.080;11.960;2023-04-10T10:07:28;95348.34;;;13.39;56.81
23363;BME280;11853;48.080;11.960;2023-04-10T10:09:56;95343.53;;;13.24;56.27
23363;BME280;11853;48.080;11.960;2023-04-10T10:12:28;95343.22;;;13.45;55.08
23363;BME280;11853;48.080;11.960;2023-04-10T10:18:06;95344.75;;;13.56;56.41
23363;BME280;11853;48.080;11.960;2023-04-10T10:20:33;95338.97;;;13.61;54.21
23363;BME280;11853;48.080;11.960;2023-04-10T10:23:02;95337.84;;;13.71;54.32
23363;BME280;11853;48.080;11.960;2023-04-10T10:25:30;95334.19;;;13.72;53.42
23363;BME280;11853;48.080;11.960;2023-04-10T10:27:58;95326.13;;;13.64;53.24
23363;BME280;11853;48.080;11.960;2023-04-10T10:30:24;95334.19;;;13.72;52.42
23363;BME280;11853;48.080;11.960;2023-04-10T10:32:50;95333.88;;;13.75;53.22
23363;BME280;11853;48.080;11.960;2023-04-10T10:35:17;95342.63;;;13.60;51.52
23363;BME280;11853;48.080;11.960;2023-04-10T10:37:46;95338.03;;;13.44;52.84
23363;BME280;11853;48.080;11.960;2023-04-10T10:40:19;95330.38;;;13.41;52.97
23363;BME280;11853;48.080;11.960;2023-04-10T10:43:04;95319.28;;;13.54;53.54
23363;BME280;11853;48.080;11.960;2023-04-10T10:45:40;95305.28;;;13.51;53.61
23363;BME280;11853;48.080;11.960;2023-04-10T10:48:07;95318.09;;;13.56;52.41
23363;BME280;11853;48.080;11.960;2023-04-10T10:50:53;95315.47;;;13.64;49.67
23363;BME280;11853;48.080;11.960;2023-04-10T10:53:43;95307.44;;;13.48;50.16
23363;BME280;11853;48.080;11.960;2023-04-10T11:01:11;95298.53;;;13.73;51.97
23363;BME280;11853;48.080;11.960;2023-04-10T11:03:37;95296.84;;;13.72;50.19
23363;BME280;11853;48.080;11.960;2023-04-10T11:06:08;95282.81;;;13.62;49.97
23363;BME280;11853;48.080;11.960;2023-04-10T11:08:35;95284.69;;;13.36;51.17
23363;BME280;11853;48.080;11.960;2023-04-10T11:11:07;95275.03;;;13.35;50.71
23363;BME280;11853;48.080;11.960;2023-04-10T11:13:35;95278.47;;;13.61;51.11
23363;BME280;11853;48.080;11.960;2023-04-10T11:16:02;95272.13;;;13.54;50.68
23363;BME280;11853;48.080;11.960;2023-04-10T11:21:13;95274.09;;;13.52;51.45
23363;BME280;11853;48.080;11.960;2023-04-10T11:29:32;95255.81;;;13.57;49.91
23363;BME280;11853;48.080;11.960;2023-04-10T11:31:59;95261.97;;;13.58;52.36
23363;BME280;11853;48.080;11.960;2023-04-10T11:34:25;95260.81;;;13.60;48.18
23363;BME280;11853;48.080;11.960;2023-04-10T11:36:59;95253.81;;;13.59;46.86
23363;BME280;11853;48.080;11.960;2023-04-10T11:39:27;95249.47;;;13.58;48.99
23363;BME280;11853;48.080;11.960;2023-04-10T11:41:53;95241.16;;;13.61;47.43
23363;BME280;11853;48.080;11.960;2023-04-10T11:46:51;95236.03;;;13.68;47.57
23363;BME280;11853;48.080;11.960;2023-04-10T11:49:22;95235.31;;;13.58;46.57
23363;BME280;11853;48.080;11.960;2023-04-10T11:51:49;95233.75;;;13.47;46.28
23363;BME280;11853;48.080;11.960;2023-04-10T11:54:17;95237.91;;;13.41;46.54
23363;BME280;11853;48.080;11.960;2023-04-10T11:56:45;95235.09;;;13.43;48.24
23363;BME280;11853;48.080;11.960;2023-04-10T11:59:19;95228.09;;;13.50;47.58
23363;BME280;11853;48.080;11.960;2023-04-10T12:01:45;95224.78;;;13.56;46.74
23363;BME280;11853;48.080;11.960;2023-04-10T12:04:18;95224.75;;;13.40;47.12
23363;BME280;11853;48.080;11.960;2023-04-10T12:06:55;95215.78;;;13.49;48.69
23363;BME280;11853;48.080;11.960;2023-04-10T12:09:22;95213.69;;;13.69;47.98
23363;BME280;11853;48.080;11.960;2023-04-10T12:14:19;95203.69;;;13.79;46.46
23363;BME280;11853;48.080;11.960;2023-04-10T12:16:45;95204.03;;;13.84;46.89
23363;BME280;11853;48.080;11.960;2023-04-10T12:19:13;95202.34;;;13.67;46.54
23363;BME280;11853;48.080;11.960;2023-04-10T12:21:40;95205.84;;;13.59;48.18
23363;BME280;11853;48.080;11.960;2023-04-10T12:24:09;95200.63;;;13.49;48.89
23363;BME280;11853;48.080;11.960;2023-04-10T12:26:35;95196.34;;;13.73;46.92
23363;BME280;11853;48.080;11.960;2023-04-10T12:29:02;95197.72;;;13.93;47.79
23363;BME280;11853;48.080;11.960;2023-04-10T12:31:28;95197.94;;;14.16;48.58
23363;BME280;11853;48.080;11.960;2023-04-10T12:33:54;95194.25;;;14.17;47.66
23363;BME280;11853;48.080;11.960;2023-04-10T12:36:25;95203.22;;;13.92;48.88
23363;BME280;11853;48.080;11.960;2023-04-10T12:38:57;95196.91;;;14.01;48.11
23363;BME280;11853;48.080;11.960;2023-04-10T12:41:26;95190.59;;;14.02;49.12
23363;BME280;11853;48.080;11.960;2023-04-10T12:44:06;95194.22;;;13.77;48.01
23363;BME280;11853;48.080;11.960;2023-04-10T12:46:32;95195.56;;;13.89;48.63
23363;BME280;11853;48.080;11.960;2023-04-10T12:54:08;95185.22;;;14.10;48.91
23363;BME280;11853;48.080;11.960;2023-04-10T12:56:43;95187.06;;;14.18;48.86
23363;BME280;11853;48.080;11.960;2023-04-10T12:59:09;95188.41;;;14.14;47.84
23363;BME280;11853;48.080;11.960;2023-04-10T13:01:38;95185.91;;;14.12;48.71
23363;BME280;11853;48.080;11.960;2023-04-10T13:04:07;95178.56;;;13.98;48.38
23363;BME280;11853;48.080;11.960;2023-04-10T13:06:41;95176.22;;;13.95;50.67
23363;BME280;11853;48.080;11.960;2023-04-10T13:09:07;95174.88;;;13.99;50.15
23363;BME280;11853;48.080;11.960;2023-04-10T13:11:33;95177.41;;;14.25;46.89
23363;BME280;11853;48.080;11.960;2023-04-10T13:13:58;95166.56;;;13.94;46.95
23363;BME280;11853;48.080;11.960;2023-04-10T13:16:24;95163.56;;;14.05;47.07
23363;BME280;11853;48.080;11.960;2023-04-10T13:18:50;95165.91;;;14.00;46.89
23363;BME280;11853;48.080;11.960;2023-04-10T13:21:16;95159.53;;;13.85;45.70
23363;BME280;11853;48.080;11.960;2023-04-10T13:23:47;95160.84;;;13.72;46.42
23363;BME280;11853;48.080;11.960;2023-04-10T13:26:13;95148.03;;;13.68;46.85
23363;BME280;11853;48.080;11.960;2023-04-10T13:28:39;95134.69;;;13.84;47.72
23363;BME280;11853;48.080;11.960;2023-04-10T13:31:04;95141.88;;;13.84;47.17
23363;BME280;11853;48.080;11.960;2023-04-10T13:33:30;95139.88;;;13.86;47.81
23363;BME280;11853;48.080;11.960;2023-04-10T13:35:56;95133.19;;;13.90;47.16
23363;BME280;11853;48.080;11.960;2023-04-10T13:38:21;95138.19;;;13.93;47.05